PWSweather.com
Personal Weather Stations
Station Observations
THENIOUX
Tomatologue, TheniouxFR 18100

TomatologueTheniouxFR 18100

Lat: 47.2574218, Lon: 1.928950900000018

Elevation: 406

Station Type: davis vue

http://www.meteo.gedfr.co/index.php

Latest ConditionsUpdated 2:48:00 AM GMT+01:01 Thursday, Jan 17, 2019
Currently Today's Max Today's Min Today's Average
Temperature 52.3°F11.3°C 52.7°F11.5°C 47.5°F8.6°C 51.0°F10.6°C
Dew Point 47.0°F8.3°C 47.4°F8.6°C 43.2°F6.2°C 45.7°F7.6°C
Winds 5.4 mph E8.7 kmh E 6.7 mph -10.8 kmh - - 2.7 mph 4.3 kmh
Wind Gusts 9.4 mph15.1 kmh 13.4 mph21.6 kmh - -
Humidity 82% 89% 78% 82%
Pressure 29.72 in1006.4 mb 29.89 in1012.2 mb 29.71 in1006.1 mb -
Precipitation - 0.04 in1.0 mm - -
Hour Temp Dew Point Humidity Winds Wind Gusts Pressure Precip Precip Rate Daily Precip Total
02:48 AM 52.3°F11.3°C 47.0°F8.3°C 82% 5.4 mph E8.7 kmh E 9.4 mph15.1 kmh 29.72 in1006.4 mb 0.00 in0.0 mm 0.00 in0.0 mm 0.04 in1.0 mm
02:47 AM 52.3°F11.3°C 47.0°F8.3°C 82% 4.0 mph SE6.4 kmh SE 6.7 mph10.8 kmh 29.72 in1006.4 mb 0.00 in0.0 mm 0.00 in0.0 mm 0.04 in1.0 mm
02:46 AM 52.3°F11.3°C 47.0°F8.3°C 82% 4.0 mph SE6.4 kmh SE 6.7 mph10.8 kmh 29.72 in1006.4 mb 0.00 in0.0 mm 0.00 in0.0 mm 0.04 in1.0 mm
02:45 AM 52.3°F11.3°C 47.0°F8.3°C 82% 6.7 mph SE10.8 kmh SE 13.4 mph21.6 kmh 29.72 in1006.4 mb 0.00 in0.0 mm 0.00 in0.0 mm 0.04 in1.0 mm
02:44 AM 52.5°F11.4°C 47.2°F8.4°C 82% 6.7 mph SW10.8 kmh SW 8.1 mph13.0 kmh 29.72 in1006.4 mb 0.00 in0.0 mm 0.00 in0.0 mm 0.04 in1.0 mm
02:43 AM 52.5°F11.4°C 47.2°F8.4°C 82% 2.7 mph E4.3 kmh E 6.7 mph10.8 kmh 29.72 in1006.4 mb 0.00 in0.0 mm 0.00 in0.0 mm 0.04 in1.0 mm
02:42 AM 52.7°F11.5°C 47.4°F8.6°C 82% 2.7 mph S4.3 kmh S 6.7 mph10.8 kmh 29.71 in1006.1 mb 0.00 in0.0 mm 0.00 in0.0 mm 0.04 in1.0 mm
02:41 AM 52.5°F11.4°C 47.2°F8.4°C 82% 5.4 mph E8.7 kmh E 9.4 mph15.1 kmh 29.72 in1006.4 mb 0.00 in0.0 mm 0.00 in0.0 mm 0.04 in1.0 mm
02:39 AM 52.5°F11.4°C 47.2°F8.4°C 82% 2.7 mph E4.3 kmh E 5.4 mph8.7 kmh 29.71 in1006.1 mb 0.00 in0.0 mm 0.00 in0.0 mm 0.04 in1.0 mm
02:38 AM 52.5°F11.4°C 47.2°F8.4°C 82% 1.3 mph 2.1 kmh 4.0 mph6.4 kmh 29.72 in1006.4 mb 0.00 in0.0 mm 0.00 in0.0 mm 0.04 in1.0 mm
02:37 AM 52.5°F11.4°C 47.2°F8.4°C 82% 2.7 mph E4.3 kmh E 5.4 mph8.7 kmh 29.72 in1006.4 mb 0.00 in0.0 mm 0.00 in0.0 mm 0.04 in1.0 mm
02:36 AM 52.5°F11.4°C 47.2°F8.4°C 82% 1.3 mph S2.1 kmh S 4.0 mph6.4 kmh 29.72 in1006.4 mb 0.00 in0.0 mm 0.00 in0.0 mm 0.04 in1.0 mm
02:35 AM 52.5°F11.4°C 47.2°F8.4°C 82% 1.3 mph SE2.1 kmh SE 5.4 mph8.7 kmh 29.72 in1006.4 mb 0.00 in0.0 mm 0.00 in0.0 mm 0.04 in1.0 mm
02:34 AM 52.5°F11.4°C 47.2°F8.4°C 82% 1.3 mph SE2.1 kmh SE 2.7 mph4.3 kmh 29.72 in1006.4 mb 0.00 in0.0 mm 0.00 in0.0 mm 0.04 in1.0 mm
02:33 AM 52.5°F11.4°C 47.2°F8.4°C 82% 1.3 mph E2.1 kmh E 4.0 mph6.4 kmh 29.72 in1006.4 mb 0.00 in0.0 mm 0.00 in0.0 mm 0.04 in1.0 mm
02:32 AM 52.5°F11.4°C 47.2°F8.4°C 82% 1.3 mph SE2.1 kmh SE 4.0 mph6.4 kmh 29.72 in1006.4 mb 0.00 in0.0 mm 0.00 in0.0 mm 0.04 in1.0 mm
02:31 AM 48.6°F9.2°C 45.5°F7.5°C 89% 3.0 mph W4.8 kmh W -- 29.87 in1011.5 mb 0.00 in0.0 mm 0.00 in0.0 mm 0.01 in0.3 mm
02:30 AM 52.3°F11.3°C 47.0°F8.3°C 82% 2.7 mph SE4.3 kmh SE 6.7 mph10.8 kmh 29.72 in1006.4 mb 0.00 in0.0 mm 0.00 in0.0 mm 0.04 in1.0 mm
02:29 AM 52.3°F11.3°C 47.0°F8.3°C 82% 1.3 mph SE2.1 kmh SE 2.7 mph4.3 kmh 29.71 in1006.1 mb 0.00 in0.0 mm 0.00 in0.0 mm 0.04 in1.0 mm
02:28 AM 52.3°F11.3°C 47.0°F8.3°C 82% 1.3 mph SE2.1 kmh SE 6.7 mph10.8 kmh 29.72 in1006.4 mb 0.00 in0.0 mm 0.00 in0.0 mm 0.04 in1.0 mm
02:27 AM 52.3°F11.3°C 47.0°F8.3°C 82% 1.3 mph SE2.1 kmh SE 2.7 mph4.3 kmh 29.71 in1006.1 mb 0.00 in0.0 mm 0.00 in0.0 mm 0.04 in1.0 mm
02:26 AM 52.3°F11.3°C 47.0°F8.3°C 82% 2.7 mph SE4.3 kmh SE 4.0 mph6.4 kmh 29.72 in1006.4 mb 0.00 in0.0 mm 0.00 in0.0 mm 0.04 in1.0 mm
02:25 AM 52.3°F11.3°C 47.0°F8.3°C 82% 2.7 mph E4.3 kmh E 6.7 mph10.8 kmh 29.72 in1006.4 mb 0.00 in0.0 mm 0.00 in0.0 mm 0.04 in1.0 mm
02:24 AM 52.3°F11.3°C 47.0°F8.3°C 82% 2.7 mph SE4.3 kmh SE 6.7 mph10.8 kmh 29.72 in1006.4 mb 0.00 in0.0 mm 0.00 in0.0 mm 0.04 in1.0 mm
02:23 AM 52.3°F11.3°C 47.0°F8.3°C 82% 4.0 mph SE6.4 kmh SE 8.1 mph13.0 kmh 29.72 in1006.4 mb 0.00 in0.0 mm 0.00 in0.0 mm 0.04 in1.0 mm
02:21 AM 52.2°F11.2°C 46.9°F8.3°C 82% 2.7 mph S4.3 kmh S 5.4 mph8.7 kmh 29.72 in1006.4 mb 0.00 in0.0 mm 0.00 in0.0 mm 0.04 in1.0 mm
02:20 AM 52.2°F11.2°C 46.9°F8.3°C 82% 1.3 mph SE2.1 kmh SE 2.7 mph4.3 kmh 29.72 in1006.4 mb 0.00 in0.0 mm 0.00 in0.0 mm 0.04 in1.0 mm
02:19 AM 52.0°F11.1°C 46.7°F8.2°C 82% 1.3 mph E2.1 kmh E 2.7 mph4.3 kmh 29.72 in1006.4 mb 0.00 in0.0 mm 0.00 in0.0 mm 0.04 in1.0 mm
02:18 AM 52.0°F11.1°C 47.0°F8.3°C 83% Calm Calm 2.7 mph4.3 kmh 29.72 in1006.4 mb 0.00 in0.0 mm 0.00 in0.0 mm 0.04 in1.0 mm
02:17 AM 52.0°F11.1°C 47.0°F8.3°C 83% 1.3 mph E2.1 kmh E 4.0 mph6.4 kmh 29.71 in1006.1 mb 0.00 in0.0 mm 0.00 in0.0 mm 0.04 in1.0 mm
02:16 AM 52.0°F11.1°C 47.0°F8.3°C 83% Calm Calm 2.7 mph4.3 kmh 29.72 in1006.4 mb 0.00 in0.0 mm 0.00 in0.0 mm 0.04 in1.0 mm
02:15 AM 51.8°F11.0°C 46.8°F8.2°C 83% 2.7 mph SE4.3 kmh SE 6.7 mph10.8 kmh 29.72 in1006.4 mb 0.07 in1.8 mm 0.00 in0.0 mm 0.04 in1.0 mm
02:14 AM 51.8°F11.0°C 46.8°F8.2°C 83% 1.3 mph SE2.1 kmh SE 4.0 mph6.4 kmh 29.72 in1006.4 mb 0.07 in1.8 mm 0.00 in0.0 mm 0.04 in1.0 mm
02:12 AM 51.8°F11.0°C 46.8°F8.2°C 83% 1.3 mph 2.1 kmh 4.0 mph6.4 kmh 29.72 in1006.4 mb 0.07 in1.8 mm 0.00 in0.0 mm 0.04 in1.0 mm
02:11 AM 51.8°F11.0°C 46.8°F8.2°C 83% 2.7 mph E4.3 kmh E 5.4 mph8.7 kmh 29.72 in1006.4 mb 0.07 in1.8 mm 0.00 in0.0 mm 0.04 in1.0 mm
02:10 AM 51.8°F11.0°C 46.8°F8.2°C 83% 2.7 mph S4.3 kmh S 6.7 mph10.8 kmh 29.72 in1006.4 mb 0.07 in1.8 mm 0.00 in0.0 mm 0.04 in1.0 mm
02:09 AM 51.8°F11.0°C 46.8°F8.2°C 83% 2.7 mph NE4.3 kmh NE 5.4 mph8.7 kmh 29.72 in1006.4 mb 0.07 in1.8 mm 0.00 in0.0 mm 0.04 in1.0 mm
02:08 AM 51.8°F11.0°C 46.8°F8.2°C 83% 2.7 mph SE4.3 kmh SE 6.7 mph10.8 kmh 29.72 in1006.4 mb 0.07 in1.8 mm 0.00 in0.0 mm 0.04 in1.0 mm
02:07 AM 51.8°F11.0°C 46.8°F8.2°C 83% 2.7 mph SE4.3 kmh SE 5.4 mph8.7 kmh 29.72 in1006.4 mb 0.07 in1.8 mm 4.20 in106.7 mm 0.04 in1.0 mm
02:06 AM 51.8°F11.0°C 46.8°F8.2°C 83% 1.3 mph E2.1 kmh E 4.0 mph6.4 kmh 29.72 in1006.4 mb 0.00 in0.0 mm 0.00 in0.0 mm 0.02 in0.5 mm
02:05 AM 51.6°F10.9°C 46.6°F8.1°C 83% 1.3 mph SE2.1 kmh SE 4.0 mph6.4 kmh 29.72 in1006.4 mb 0.00 in0.0 mm 0.00 in0.0 mm 0.02 in0.5 mm
02:03 AM 51.6°F10.9°C 46.6°F8.1°C 83% Calm Calm 4.0 mph6.4 kmh 29.71 in1006.1 mb 0.07 in1.8 mm 0.00 in0.0 mm 0.02 in0.5 mm
02:02 AM 51.8°F11.0°C 46.8°F8.2°C 83% 2.7 mph 4.3 kmh 6.7 mph10.8 kmh 29.72 in1006.4 mb 0.07 in1.8 mm 0.00 in0.0 mm 0.02 in0.5 mm
02:01 AM 51.6°F10.9°C 46.6°F8.1°C 83% 2.7 mph SE4.3 kmh SE 5.4 mph8.7 kmh 29.72 in1006.4 mb 0.07 in1.8 mm 0.00 in0.0 mm 0.02 in0.5 mm
02:00 AM 51.6°F10.9°C 46.6°F8.1°C 83% 2.7 mph SE4.3 kmh SE 4.0 mph6.4 kmh 29.72 in1006.4 mb 0.07 in1.8 mm 0.00 in0.0 mm 0.02 in0.5 mm
01:59 AM 51.6°F10.9°C 46.6°F8.1°C 83% 1.3 mph SE2.1 kmh SE 2.7 mph4.3 kmh 29.72 in1006.4 mb 0.07 in1.8 mm 0.00 in0.0 mm 0.02 in0.5 mm
01:58 AM 51.6°F10.9°C 46.6°F8.1°C 83% 2.7 mph E4.3 kmh E 6.7 mph10.8 kmh 29.72 in1006.4 mb 0.07 in1.8 mm 0.00 in0.0 mm 0.02 in0.5 mm
01:57 AM 51.6°F10.9°C 46.6°F8.1°C 83% 4.0 mph SE6.4 kmh SE 6.7 mph10.8 kmh 29.72 in1006.4 mb 0.07 in1.8 mm 0.00 in0.0 mm 0.02 in0.5 mm
01:56 AM 51.6°F10.9°C 46.6°F8.1°C 83% 2.7 mph SE4.3 kmh SE 9.4 mph15.1 kmh 29.72 in1006.4 mb 0.07 in1.8 mm 2.10 in53.3 mm 0.02 in0.5 mm
01:54 AM 51.4°F10.8°C 46.4°F8.0°C 83% 2.7 mph SE4.3 kmh SE 5.4 mph8.7 kmh 29.72 in1006.4 mb 0.00 in0.0 mm 0.00 in0.0 mm 0.01 in0.3 mm
01:53 AM 51.4°F10.8°C 46.4°F8.0°C 83% 1.3 mph E2.1 kmh E 4.0 mph6.4 kmh 29.72 in1006.4 mb 0.00 in0.0 mm 0.00 in0.0 mm 0.01 in0.3 mm
01:52 AM 51.4°F10.8°C 46.4°F8.0°C 83% 4.0 mph SE6.4 kmh SE 9.4 mph15.1 kmh 29.72 in1006.4 mb 0.00 in0.0 mm 0.00 in0.0 mm 0.01 in0.3 mm
01:51 AM 51.4°F10.8°C 46.4°F8.0°C 83% 2.7 mph SE4.3 kmh SE 5.4 mph8.7 kmh 29.72 in1006.4 mb 0.00 in0.0 mm 0.00 in0.0 mm 0.01 in0.3 mm
01:49 AM 51.4°F10.8°C 46.1°F7.8°C 82% 1.3 mph WSW2.1 kmh WSW 4.0 mph6.4 kmh 29.72 in1006.4 mb 0.00 in0.0 mm 0.00 in0.0 mm 0.01 in0.3 mm
01:48 AM 51.4°F10.8°C 46.1°F7.8°C 82% 1.3 mph E2.1 kmh E 6.7 mph10.8 kmh 29.72 in1006.4 mb 0.00 in0.0 mm 0.00 in0.0 mm 0.01 in0.3 mm
01:47 AM 51.4°F10.8°C 46.1°F7.8°C 82% 5.4 mph E8.7 kmh E 9.4 mph15.1 kmh 29.72 in1006.4 mb 0.00 in0.0 mm 0.00 in0.0 mm 0.01 in0.3 mm
01:46 AM 47.7°F8.7°C 44.3°F6.8°C 88% 6.0 mph W9.7 kmh W -- 29.88 in1011.9 mb 0.00 in0.0 mm 0.00 in0.0 mm 0.07 in1.8 mm
01:45 AM 51.4°F10.8°C 46.1°F7.8°C 82% 1.3 mph SE2.1 kmh SE 5.4 mph8.7 kmh 29.72 in1006.4 mb 0.00 in0.0 mm 0.00 in0.0 mm 0.01 in0.3 mm
01:44 AM 51.4°F10.8°C 46.1°F7.8°C 82% 1.3 mph S2.1 kmh S 5.4 mph8.7 kmh 29.72 in1006.4 mb 0.00 in0.0 mm 0.00 in0.0 mm 0.01 in0.3 mm
01:43 AM 51.4°F10.8°C 46.1°F7.8°C 82% 2.7 mph NE4.3 kmh NE 6.7 mph10.8 kmh 29.72 in1006.4 mb 0.00 in0.0 mm 0.00 in0.0 mm 0.01 in0.3 mm
01:42 AM 51.4°F10.8°C 46.1°F7.8°C 82% 1.3 mph S2.1 kmh S 4.0 mph6.4 kmh 29.72 in1006.4 mb 0.00 in0.0 mm 0.00 in0.0 mm 0.01 in0.3 mm
01:41 AM 51.4°F10.8°C 46.1°F7.8°C 82% 1.3 mph SE2.1 kmh SE 4.0 mph6.4 kmh 29.73 in1006.8 mb 0.00 in0.0 mm 0.00 in0.0 mm 0.01 in0.3 mm
01:40 AM 51.4°F10.8°C 46.1°F7.8°C 82% 2.7 mph SE4.3 kmh SE 5.4 mph8.7 kmh 29.72 in1006.4 mb 0.00 in0.0 mm 0.00 in0.0 mm 0.01 in0.3 mm
01:39 AM 51.3°F10.7°C 46.0°F7.8°C 82% 1.3 mph SE2.1 kmh SE 4.0 mph6.4 kmh 29.72 in1006.4 mb 0.00 in0.0 mm 0.00 in0.0 mm 0.01 in0.3 mm
01:38 AM 51.3°F10.7°C 46.0°F7.8°C 82% 1.3 mph SE2.1 kmh SE 4.0 mph6.4 kmh 29.72 in1006.4 mb 0.00 in0.0 mm 0.00 in0.0 mm 0.01 in0.3 mm
01:36 AM 51.3°F10.7°C 46.0°F7.8°C 82% 4.0 mph SE6.4 kmh SE 5.4 mph8.7 kmh 29.72 in1006.4 mb 0.00 in0.0 mm 0.00 in0.0 mm 0.01 in0.3 mm
01:35 AM 51.3°F10.7°C 46.0°F7.8°C 82% 2.7 mph SE4.3 kmh SE 5.4 mph8.7 kmh 29.72 in1006.4 mb 0.00 in0.0 mm 0.00 in0.0 mm 0.01 in0.3 mm
01:34 AM 51.1°F10.6°C 45.8°F7.7°C 82% 2.7 mph SE4.3 kmh SE 5.4 mph8.7 kmh 29.72 in1006.4 mb 0.00 in0.0 mm 0.00 in0.0 mm 0.01 in0.3 mm
01:33 AM 51.3°F10.7°C 46.0°F7.8°C 82% 2.7 mph SE4.3 kmh SE 4.0 mph6.4 kmh 29.73 in1006.8 mb 0.00 in0.0 mm 0.00 in0.0 mm 0.01 in0.3 mm
01:32 AM 51.3°F10.7°C 46.0°F7.8°C 82% 1.3 mph E2.1 kmh E 4.0 mph6.4 kmh 29.72 in1006.4 mb 0.00 in0.0 mm 0.00 in0.0 mm 0.01 in0.3 mm
01:31 AM 51.3°F10.7°C 46.0°F7.8°C 82% 4.0 mph SE6.4 kmh SE 8.1 mph13.0 kmh 29.72 in1006.4 mb 0.00 in0.0 mm 0.00 in0.0 mm 0.01 in0.3 mm
01:30 AM 51.3°F10.7°C 46.0°F7.8°C 82% 4.0 mph SE6.4 kmh SE 8.1 mph13.0 kmh 29.72 in1006.4 mb 0.00 in0.0 mm 0.00 in0.0 mm 0.01 in0.3 mm
01:29 AM 51.3°F10.7°C 46.0°F7.8°C 82% 2.7 mph SE4.3 kmh SE 5.4 mph8.7 kmh 29.73 in1006.8 mb 0.00 in0.0 mm 0.00 in0.0 mm 0.01 in0.3 mm
01:27 AM 51.4°F10.8°C 46.1°F7.8°C 82% 2.7 mph SE4.3 kmh SE 6.7 mph10.8 kmh 29.73 in1006.8 mb 0.00 in0.0 mm 0.00 in0.0 mm 0.01 in0.3 mm
01:26 AM 51.4°F10.8°C 46.1°F7.8°C 82% 2.7 mph SE4.3 kmh SE 8.1 mph13.0 kmh 29.72 in1006.4 mb 0.00 in0.0 mm 0.00 in0.0 mm 0.01 in0.3 mm
01:25 AM 51.4°F10.8°C 46.1°F7.8°C 82% 5.4 mph SE8.7 kmh SE 9.4 mph15.1 kmh 29.73 in1006.8 mb 0.00 in0.0 mm 0.00 in0.0 mm 0.01 in0.3 mm
01:24 AM 51.3°F10.7°C 45.7°F7.6°C 81% 1.3 mph E2.1 kmh E 4.0 mph6.4 kmh 29.72 in1006.4 mb 0.00 in0.0 mm 0.00 in0.0 mm 0.01 in0.3 mm
01:22 AM 51.3°F10.7°C 45.7°F7.6°C 81% 2.7 mph S4.3 kmh S 5.4 mph8.7 kmh 29.72 in1006.4 mb 0.00 in0.0 mm 0.00 in0.0 mm 0.01 in0.3 mm
01:21 AM 51.3°F10.7°C 45.7°F7.6°C 81% 2.7 mph SE4.3 kmh SE 5.4 mph8.7 kmh 29.73 in1006.8 mb 0.00 in0.0 mm 0.00 in0.0 mm 0.01 in0.3 mm
01:20 AM 51.3°F10.7°C 45.7°F7.6°C 81% 2.7 mph E4.3 kmh E 5.4 mph8.7 kmh 29.73 in1006.8 mb 0.00 in0.0 mm 0.00 in0.0 mm 0.01 in0.3 mm
01:18 AM 51.3°F10.7°C 45.7°F7.6°C 81% 2.7 mph E4.3 kmh E 6.7 mph10.8 kmh 29.72 in1006.4 mb 0.00 in0.0 mm 0.00 in0.0 mm 0.01 in0.3 mm
01:17 AM 51.3°F10.7°C 45.7°F7.6°C 81% 1.3 mph SE2.1 kmh SE 4.0 mph6.4 kmh 29.72 in1006.4 mb 0.00 in0.0 mm 0.00 in0.0 mm 0.01 in0.3 mm
01:16 AM 51.3°F10.7°C 45.7°F7.6°C 81% 4.0 mph NE6.4 kmh NE 6.7 mph10.8 kmh 29.72 in1006.4 mb 0.00 in0.0 mm 0.00 in0.0 mm 0.01 in0.3 mm
01:15 AM 51.1°F10.6°C 45.5°F7.5°C 81% 1.3 mph SE2.1 kmh SE 4.0 mph6.4 kmh 29.73 in1006.8 mb 0.00 in0.0 mm 0.00 in0.0 mm 0.01 in0.3 mm
01:14 AM 51.1°F10.6°C 45.5°F7.5°C 81% Calm Calm 2.7 mph4.3 kmh 29.73 in1006.8 mb 0.00 in0.0 mm 0.00 in0.0 mm 0.01 in0.3 mm
01:13 AM 51.1°F10.6°C 45.5°F7.5°C 81% 4.0 mph SE6.4 kmh SE 6.7 mph10.8 kmh 29.73 in1006.8 mb 0.00 in0.0 mm 0.00 in0.0 mm 0.01 in0.3 mm
01:12 AM 51.1°F10.6°C 45.5°F7.5°C 81% 2.7 mph E4.3 kmh E 6.7 mph10.8 kmh 29.73 in1006.8 mb 0.00 in0.0 mm 0.00 in0.0 mm 0.01 in0.3 mm
01:11 AM 51.1°F10.6°C 45.5°F7.5°C 81% 1.3 mph SE2.1 kmh SE 2.7 mph4.3 kmh 29.73 in1006.8 mb 0.00 in0.0 mm 0.00 in0.0 mm 0.01 in0.3 mm
01:09 AM 51.1°F10.6°C 45.5°F7.5°C 81% 2.7 mph SE4.3 kmh SE 5.4 mph8.7 kmh 29.73 in1006.8 mb 0.00 in0.0 mm 0.00 in0.0 mm 0.01 in0.3 mm
01:08 AM 51.1°F10.6°C 45.5°F7.5°C 81% Calm Calm 2.7 mph4.3 kmh 29.73 in1006.8 mb 0.00 in0.0 mm 0.00 in0.0 mm 0.01 in0.3 mm
01:07 AM 51.1°F10.6°C 45.5°F7.5°C 81% 1.3 mph 2.1 kmh 5.4 mph8.7 kmh 29.73 in1006.8 mb 0.00 in0.0 mm 0.00 in0.0 mm 0.01 in0.3 mm
01:06 AM 51.1°F10.6°C 45.5°F7.5°C 81% 1.3 mph SE2.1 kmh SE 5.4 mph8.7 kmh 29.73 in1006.8 mb 0.00 in0.0 mm 0.00 in0.0 mm 0.01 in0.3 mm
01:05 AM 51.1°F10.6°C 45.5°F7.5°C 81% 2.7 mph S4.3 kmh S 6.7 mph10.8 kmh 29.73 in1006.8 mb 0.00 in0.0 mm 0.00 in0.0 mm 0.01 in0.3 mm
01:04 AM 51.1°F10.6°C 45.5°F7.5°C 81% 4.0 mph S6.4 kmh S 8.1 mph13.0 kmh 29.73 in1006.8 mb 0.00 in0.0 mm 0.00 in0.0 mm 0.01 in0.3 mm
01:03 AM 51.1°F10.6°C 45.5°F7.5°C 81% 2.7 mph SE4.3 kmh SE 6.7 mph10.8 kmh 29.73 in1006.8 mb 0.00 in0.0 mm 0.00 in0.0 mm 0.01 in0.3 mm
01:02 AM 50.9°F10.5°C 45.3°F7.4°C 81% 1.3 mph SE2.1 kmh SE 4.0 mph6.4 kmh 29.73 in1006.8 mb 0.00 in0.0 mm 0.00 in0.0 mm 0.01 in0.3 mm
01:01 AM 47.7°F8.7°C 44.0°F6.7°C 87% 5.0 mph W8.0 kmh W -- 29.88 in1011.9 mb 0.00 in0.0 mm 0.00 in0.0 mm 0.07 in1.8 mm
01:00 AM 51.1°F10.6°C 45.5°F7.5°C 81% 1.3 mph S2.1 kmh S 2.7 mph4.3 kmh 29.73 in1006.8 mb 0.00 in0.0 mm 0.00 in0.0 mm 0.01 in0.3 mm
12:59 AM 51.1°F10.6°C 45.5°F7.5°C 81% 5.4 mph E8.7 kmh E 8.1 mph13.0 kmh 29.73 in1006.8 mb 0.00 in0.0 mm 0.00 in0.0 mm 0.01 in0.3 mm
12:58 AM 51.1°F10.6°C 45.5°F7.5°C 81% 6.7 mph SE10.8 kmh SE 13.4 mph21.6 kmh 29.73 in1006.8 mb 0.00 in0.0 mm 0.00 in0.0 mm 0.01 in0.3 mm
12:57 AM 51.1°F10.6°C 45.5°F7.5°C 81% 2.7 mph SE4.3 kmh SE 6.7 mph10.8 kmh 29.73 in1006.8 mb 0.00 in0.0 mm 0.00 in0.0 mm 0.01 in0.3 mm
12:56 AM 51.3°F10.7°C 45.7°F7.6°C 81% 1.3 mph SE2.1 kmh SE 2.7 mph4.3 kmh 29.72 in1006.4 mb 0.00 in0.0 mm 0.00 in0.0 mm 0.01 in0.3 mm
12:55 AM 51.1°F10.6°C 45.5°F7.5°C 81% 1.3 mph NE2.1 kmh NE 4.0 mph6.4 kmh 29.73 in1006.8 mb 0.00 in0.0 mm 0.00 in0.0 mm 0.01 in0.3 mm
12:54 AM 51.1°F10.6°C 45.5°F7.5°C 81% 2.7 mph SE4.3 kmh SE 6.7 mph10.8 kmh 29.73 in1006.8 mb 0.00 in0.0 mm 0.00 in0.0 mm 0.01 in0.3 mm
12:53 AM 51.1°F10.6°C 45.5°F7.5°C 81% 4.0 mph SE6.4 kmh SE 9.4 mph15.1 kmh 29.73 in1006.8 mb 0.00 in0.0 mm 0.00 in0.0 mm 0.01 in0.3 mm
12:51 AM 51.1°F10.6°C 45.5°F7.5°C 81% 1.3 mph S2.1 kmh S 2.7 mph4.3 kmh 29.73 in1006.8 mb 0.00 in0.0 mm 0.00 in0.0 mm 0.01 in0.3 mm
12:50 AM 51.1°F10.6°C 45.5°F7.5°C 81% 1.3 mph SE2.1 kmh SE 2.7 mph4.3 kmh 29.73 in1006.8 mb 0.00 in0.0 mm 0.00 in0.0 mm 0.01 in0.3 mm
12:49 AM 51.1°F10.6°C 45.5°F7.5°C 81% 2.7 mph SE4.3 kmh SE 5.4 mph8.7 kmh 29.73 in1006.8 mb 0.00 in0.0 mm 0.00 in0.0 mm 0.01 in0.3 mm
12:48 AM 51.1°F10.6°C 45.5°F7.5°C 81% 2.7 mph S4.3 kmh S 5.4 mph8.7 kmh 29.73 in1006.8 mb 0.00 in0.0 mm 0.00 in0.0 mm 0.01 in0.3 mm
12:47 AM 51.1°F10.6°C 45.5°F7.5°C 81% 2.7 mph SE4.3 kmh SE 5.4 mph8.7 kmh 29.73 in1006.8 mb 0.00 in0.0 mm 0.00 in0.0 mm 0.01 in0.3 mm
12:46 AM 51.1°F10.6°C 45.5°F7.5°C 81% 2.7 mph SE4.3 kmh SE 5.4 mph8.7 kmh 29.73 in1006.8 mb 0.00 in0.0 mm 0.00 in0.0 mm 0.01 in0.3 mm
12:45 AM 51.1°F10.6°C 45.5°F7.5°C 81% 1.3 mph SE2.1 kmh SE 4.0 mph6.4 kmh 29.73 in1006.8 mb 0.00 in0.0 mm 0.00 in0.0 mm 0.01 in0.3 mm
12:44 AM 51.1°F10.6°C 45.5°F7.5°C 81% 2.7 mph E4.3 kmh E 6.7 mph10.8 kmh 29.73 in1006.8 mb 0.00 in0.0 mm 0.00 in0.0 mm 0.01 in0.3 mm
12:42 AM 50.9°F10.5°C 45.3°F7.4°C 81% 1.3 mph E2.1 kmh E 5.4 mph8.7 kmh 29.73 in1006.8 mb 0.00 in0.0 mm 0.00 in0.0 mm 0.01 in0.3 mm
12:41 AM 50.9°F10.5°C 45.3°F7.4°C 81% 2.7 mph E4.3 kmh E 4.0 mph6.4 kmh 29.73 in1006.8 mb 0.00 in0.0 mm 0.00 in0.0 mm 0.01 in0.3 mm
12:40 AM 50.9°F10.5°C 45.3°F7.4°C 81% 1.3 mph S2.1 kmh S 4.0 mph6.4 kmh 29.73 in1006.8 mb 0.00 in0.0 mm 0.00 in0.0 mm 0.01 in0.3 mm
12:39 AM 50.9°F10.5°C 45.3°F7.4°C 81% 1.3 mph SE2.1 kmh SE 4.0 mph6.4 kmh 29.73 in1006.8 mb 0.00 in0.0 mm 0.00 in0.0 mm 0.01 in0.3 mm
12:38 AM 50.9°F10.5°C 45.3°F7.4°C 81% Calm Calm 2.7 mph4.3 kmh 29.73 in1006.8 mb 0.00 in0.0 mm 0.00 in0.0 mm 0.01 in0.3 mm
12:37 AM 50.9°F10.5°C 45.3°F7.4°C 81% 1.3 mph E2.1 kmh E 4.0 mph6.4 kmh 29.73 in1006.8 mb 0.00 in0.0 mm 0.00 in0.0 mm 0.01 in0.3 mm
12:36 AM 50.9°F10.5°C 45.3°F7.4°C 81% 1.3 mph SE2.1 kmh SE 2.7 mph4.3 kmh 29.73 in1006.8 mb 0.00 in0.0 mm 0.00 in0.0 mm 0.01 in0.3 mm
12:35 AM 50.9°F10.5°C 45.3°F7.4°C 81% 2.7 mph S4.3 kmh S 5.4 mph8.7 kmh 29.73 in1006.8 mb 0.00 in0.0 mm 0.00 in0.0 mm 0.01 in0.3 mm
12:33 AM 50.9°F10.5°C 45.3°F7.4°C 81% 2.7 mph SE4.3 kmh SE 5.4 mph8.7 kmh 29.74 in1007.1 mb 0.00 in0.0 mm 0.00 in0.0 mm 0.01 in0.3 mm
12:32 AM 51.1°F10.6°C 45.1°F7.3°C 80% 2.7 mph SE4.3 kmh SE 8.1 mph13.0 kmh 29.73 in1006.8 mb 0.00 in0.0 mm 0.00 in0.0 mm 0.01 in0.3 mm
12:31 AM 51.1°F10.6°C 45.1°F7.3°C 80% 2.7 mph S4.3 kmh S 4.0 mph6.4 kmh 29.73 in1006.8 mb 0.00 in0.0 mm 0.00 in0.0 mm 0.01 in0.3 mm
12:30 AM 51.1°F10.6°C 45.1°F7.3°C 80% 2.7 mph S4.3 kmh S 6.7 mph10.8 kmh 29.73 in1006.8 mb 0.00 in0.0 mm 0.00 in0.0 mm 0.01 in0.3 mm
12:29 AM 51.1°F10.6°C 45.1°F7.3°C 80% 2.7 mph E4.3 kmh E 5.4 mph8.7 kmh 29.73 in1006.8 mb 0.00 in0.0 mm 0.00 in0.0 mm 0.01 in0.3 mm
12:28 AM 51.1°F10.6°C 45.1°F7.3°C 80% 1.3 mph E2.1 kmh E 4.0 mph6.4 kmh 29.74 in1007.1 mb 0.00 in0.0 mm 0.00 in0.0 mm 0.01 in0.3 mm
12:27 AM 51.1°F10.6°C 45.1°F7.3°C 80% 4.0 mph SE6.4 kmh SE 8.1 mph13.0 kmh 29.74 in1007.1 mb 0.00 in0.0 mm 0.00 in0.0 mm 0.01 in0.3 mm
12:26 AM 51.1°F10.6°C 45.1°F7.3°C 80% 2.7 mph SE4.3 kmh SE 8.1 mph13.0 kmh 29.74 in1007.1 mb 0.00 in0.0 mm 0.00 in0.0 mm 0.01 in0.3 mm
12:24 AM 50.9°F10.5°C 45.0°F7.2°C 80% 2.7 mph SE4.3 kmh SE 4.0 mph6.4 kmh 29.74 in1007.1 mb 0.00 in0.0 mm 0.00 in0.0 mm 0.01 in0.3 mm
12:23 AM 51.1°F10.6°C 45.1°F7.3°C 80% 4.0 mph SE6.4 kmh SE 6.7 mph10.8 kmh 29.74 in1007.1 mb 0.00 in0.0 mm 0.00 in0.0 mm 0.01 in0.3 mm
12:22 AM 51.1°F10.6°C 45.1°F7.3°C 80% 1.3 mph S2.1 kmh S 4.0 mph6.4 kmh 29.73 in1006.8 mb 0.00 in0.0 mm 0.00 in0.0 mm 0.01 in0.3 mm
12:21 AM 51.1°F10.6°C 45.1°F7.3°C 80% 2.7 mph SE4.3 kmh SE 6.7 mph10.8 kmh 29.74 in1007.1 mb 0.00 in0.0 mm 0.00 in0.0 mm 0.01 in0.3 mm
12:20 AM 50.9°F10.5°C 45.0°F7.2°C 80% 2.7 mph SE4.3 kmh SE 4.0 mph6.4 kmh 29.74 in1007.1 mb 0.00 in0.0 mm 0.00 in0.0 mm 0.01 in0.3 mm
12:19 AM 50.9°F10.5°C 45.0°F7.2°C 80% 2.7 mph SE4.3 kmh SE 5.4 mph8.7 kmh 29.74 in1007.1 mb 0.00 in0.0 mm 0.00 in0.0 mm 0.01 in0.3 mm
12:18 AM 50.9°F10.5°C 45.0°F7.2°C 80% Calm Calm 2.7 mph4.3 kmh 29.74 in1007.1 mb 0.00 in0.0 mm 0.00 in0.0 mm 0.01 in0.3 mm
12:17 AM 50.9°F10.5°C 45.0°F7.2°C 80% 2.7 mph SW4.3 kmh SW 8.1 mph13.0 kmh 29.74 in1007.1 mb 0.00 in0.0 mm 0.00 in0.0 mm 0.01 in0.3 mm
12:16 AM 47.8°F8.8°C 43.2°F6.2°C 84% 6.0 mph W9.7 kmh W -- 29.89 in1012.2 mb 0.00 in0.0 mm 0.00 in0.0 mm 0.07 in1.8 mm
12:15 AM 50.7°F10.4°C 45.1°F7.3°C 81% 2.7 mph SE4.3 kmh SE 4.0 mph6.4 kmh 29.74 in1007.1 mb 0.00 in0.0 mm 0.00 in0.0 mm 0.01 in0.3 mm
12:14 AM 50.7°F10.4°C 44.8°F7.1°C 80% 1.3 mph S2.1 kmh S 2.7 mph4.3 kmh 29.74 in1007.1 mb 0.00 in0.0 mm 0.00 in0.0 mm 0.01 in0.3 mm
12:13 AM 50.7°F10.4°C 44.8°F7.1°C 80% 1.3 mph S2.1 kmh S 4.0 mph6.4 kmh 29.74 in1007.1 mb 0.00 in0.0 mm 0.00 in0.0 mm 0.01 in0.3 mm
12:12 AM 50.7°F10.4°C 45.1°F7.3°C 81% 2.7 mph SE4.3 kmh SE 6.7 mph10.8 kmh 29.74 in1007.1 mb 0.00 in0.0 mm 0.00 in0.0 mm 0.01 in0.3 mm
12:11 AM 50.7°F10.4°C 44.8°F7.1°C 80% 4.0 mph SE6.4 kmh SE 8.1 mph13.0 kmh 29.74 in1007.1 mb 0.07 in1.8 mm 0.00 in0.0 mm 0.01 in0.3 mm
12:10 AM 50.7°F10.4°C 44.8°F7.1°C 80% 4.0 mph S6.4 kmh S 10.7 mph17.2 kmh 29.74 in1007.1 mb 0.07 in1.8 mm 0.00 in0.0 mm 0.01 in0.3 mm
12:09 AM 50.7°F10.4°C 44.8°F7.1°C 80% 1.3 mph SE2.1 kmh SE 4.0 mph6.4 kmh 29.74 in1007.1 mb 0.07 in1.8 mm 0.00 in0.0 mm 0.01 in0.3 mm
12:08 AM 50.7°F10.4°C 44.8°F7.1°C 80% 4.0 mph E6.4 kmh E 6.7 mph10.8 kmh 29.74 in1007.1 mb 0.07 in1.8 mm 0.00 in0.0 mm 0.01 in0.3 mm
12:06 AM 50.7°F10.4°C 44.8°F7.1°C 80% 5.4 mph SE8.7 kmh SE 10.7 mph17.2 kmh 29.74 in1007.1 mb 0.07 in1.8 mm 0.00 in0.0 mm 0.01 in0.3 mm
12:05 AM 50.7°F10.4°C 44.8°F7.1°C 80% 2.7 mph E4.3 kmh E 5.4 mph8.7 kmh 29.74 in1007.1 mb 0.07 in1.8 mm 0.00 in0.0 mm 0.01 in0.3 mm
12:04 AM 50.9°F10.5°C 45.0°F7.2°C 80% 2.7 mph NE4.3 kmh NE 5.4 mph8.7 kmh 29.74 in1007.1 mb 0.07 in1.8 mm 0.00 in0.0 mm 0.01 in0.3 mm
12:03 AM 50.9°F10.5°C 44.6°F7.0°C 79% 2.7 mph E4.3 kmh E 8.1 mph13.0 kmh 29.74 in1007.1 mb 0.07 in1.8 mm 0.00 in0.0 mm 0.01 in0.3 mm
12:02 AM 50.9°F10.5°C 44.6°F7.0°C 79% 4.0 mph E6.4 kmh E 8.1 mph13.0 kmh 29.75 in1007.5 mb 0.07 in1.8 mm 4.20 in106.7 mm 0.01 in0.3 mm
12:01 AM 51.1°F10.6°C 44.8°F7.1°C 79% 2.7 mph SE4.3 kmh SE 6.7 mph10.8 kmh 29.75 in1007.5 mb 0.00 in0.0 mm 0.00 in0.0 mm 0.00 in0.0 mm
12:00 AM 51.1°F10.6°C 44.5°F6.9°C 78% 2.7 mph SE4.3 kmh SE 6.7 mph10.8 kmh 29.74 in1007.1 mb 0.00 in0.0 mm 0.00 in0.0 mm 0.00 in0.0 mm